Time;durP1;ratioP1;P1;durP2;ratioP2;P2;SDS_P1;SDS_P2;PMS_P1;PMS_P2;Temp;Humidity;BMP_temperature;BMP_pressure;BME280_temperature;BME280_humidity;BME280_pressure;Samples;Min_cycle;Max_cycle;Signal;HPM_P1;HPM_P2
2021/06/02 00:01:46;;;;;;;3.75;2.30;;;19.30;54.40;;;;;;5052203;28;20059;-61
2021/06/02 00:04:15;;;;;;;3.80;2.15;;;19.20;54.60;;;;;;5052524;28;20033;-62
2021/06/02 00:06:43;;;;;;;4.40;2.53;;;19.20;54.80;;;;;;5053962;28;20067;-62
2021/06/02 00:09:08;;;;;;;3.40;2.42;;;19.20;55.10;;;;;;5057230;28;20033;-62
2021/06/02 00:11:35;;;;;;;5.72;2.13;;;19.10;54.90;;;;;;5060188;28;20036;-62
2021/06/02 00:14:03;;;;;;;4.57;2.40;;;19.10;54.90;;;;;;5060329;28;20041;-62
2021/06/02 00:16:29;;;;;;;4.72;2.50;;;19.10;54.80;;;;;;5053449;28;20049;-62
2021/06/02 00:18:55;;;;;;;2.83;2.20;;;19.00;54.80;;;;;;5060500;28;20086;-64
2021/06/02 00:21:21;;;;;;;5.78;2.63;;;19.00;54.90;;;;;;5059260;28;20028;-64
2021/06/02 00:23:47;;;;;;;2.90;2.15;;;19.00;55.10;;;;;;5063342;28;20388;-64
2021/06/02 00:26:14;;;;;;;4.95;2.45;;;19.00;55.30;;;;;;5062804;28;20123;-64
2021/06/02 00:28:40;;;;;;;3.75;2.30;;;18.90;55.50;;;;;;5071541;28;20029;-64
2021/06/02 00:31:06;;;;;;;3.95;2.30;;;18.90;55.80;;;;;;5072420;28;20021;-64
2021/06/02 00:33:32;;;;;;;3.33;2.35;;;18.90;56.00;;;;;;5071376;28;20461;-64
2021/06/02 00:35:59;;;;;;;3.83;2.25;;;18.80;56.30;;;;;;5074025;28;20395;-64
2021/06/02 00:38:26;;;;;;;3.92;2.58;;;18.80;56.40;;;;;;5070174;28;20032;-64
2021/06/02 00:40:52;;;;;;;4.13;2.60;;;18.80;56.50;;;;;;5068945;28;20053;-64
2021/06/02 00:43:19;;;;;;;4.47;2.50;;;18.80;56.60;;;;;;5071951;28;20099;-64
2021/06/02 00:45:48;;;;;;;4.55;2.90;;;18.80;56.80;;;;;;5067239;28;20046;-64
2021/06/02 00:48:17;;;;;;;5.63;2.70;;;18.70;56.90;;;;;;5072136;28;20028;-64
2021/06/02 00:50:48;;;;;;;3.80;2.78;;;18.70;57.10;;;;;;5068622;28;20041;-64
2021/06/02 00:53:15;;;;;;;4.75;2.80;;;18.70;57.50;;;;;;5071300;28;20455;-64
2021/06/02 00:55:41;;;;;;;4.45;3.20;;;18.60;57.50;;;;;;5069954;28;20415;-64
2021/06/02 00:58:12;;;;;;;6.05;3.20;;;18.60;57.80;;;;;;5069215;28;20057;-64
2021/06/02 01:00:38;;;;;;;5.78;3.47;;;18.60;58.10;;;;;;5071968;28;20032;-64
2021/06/02 01:03:08;;;;;;;6.82;3.00;;;18.60;58.30;;;;;;5068321;28;20029;-64
2021/06/02 01:05:34;;;;;;;6.90;3.13;;;18.50;58.70;;;;;;5074835;28;20024;-64
2021/06/02 01:08:04;;;;;;;4.30;3.13;;;18.60;58.90;;;;;;5066957;28;20472;-64
2021/06/02 01:10:30;;;;;;;5.03;3.40;;;18.50;59.10;;;;;;5066014;28;20023;-64
2021/06/02 01:12:59;;;;;;;4.40;3.10;;;18.50;59.30;;;;;;5069148;28;20060;-64
2021/06/02 01:15:26;;;;;;;4.85;3.42;;;18.40;59.60;;;;;;5066019;28;20075;-64
2021/06/02 01:17:51;;;;;;;5.07;2.90;;;18.50;59.90;;;;;;5066776;28;20472;-64
2021/06/02 01:20:18;;;;;;;4.63;3.08;;;18.40;60.10;;;;;;5068644;28;20033;-64
2021/06/02 01:22:46;;;;;;;4.82;3.40;;;18.40;60.40;;;;;;5066276;28;20055;-64
2021/06/02 01:25:16;;;;;;;5.32;3.55;;;18.40;60.70;;;;;;5057383;28;20036;-64
2021/06/02 01:27:43;;;;;;;7.55;3.80;;;18.40;61.00;;;;;;5073673;28;20029;-64
2021/06/02 01:30:15;;;;;;;14.88;3.92;;;18.30;61.20;;;;;;5063130;28;20162;-64
2021/06/02 01:32:53;;;;;;;6.55;3.35;;;18.30;61.50;;;;;;5069046;28;20491;-64
2021/06/02 01:35:37;;;;;;;5.72;3.88;;;18.30;61.80;;;;;;5075015;28;20044;-64
2021/06/02 01:38:15;;;;;;;10.23;3.70;;;18.30;62.00;;;;;;5071169;28;20056;-64
2021/06/02 01:41:26;;;;;;;6.85;4.15;;;18.20;62.10;;;;;;5073716;28;20029;-64
2021/06/02 01:44:29;;;;;;;7.13;4.00;;;18.20;62.40;;;;;;5060306;28;20068;-64
2021/06/02 01:46:57;;;;;;;9.38;4.10;;;18.20;62.80;;;;;;5073268;28;20036;-64
2021/06/02 01:49:41;;;;;;;9.82;4.80;;;18.10;63.30;;;;;;5074289;28;20125;-64
2021/06/02 01:52:25;;;;;;;6.82;4.40;;;18.10;63.70;;;;;;5055892;28;20412;-64
2021/06/02 01:55:24;;;;;;;9.80;4.35;;;18.10;64.00;;;;;;5068986;28;20044;-64
2021/06/02 01:58:27;;;;;;;8.70;4.70;;;18.10;64.40;;;;;;5073652;28;20048;-64
2021/06/02 02:01:41;;;;;;;7.60;4.82;;;18.00;64.80;;;;;;5053790;28;20489;-64
2021/06/02 02:04:44;;;;;;;9.05;4.88;;;18.00;65.10;;;;;;5054230;28;20400;-64
2021/06/02 02:07:25;;;;;;;9.20;4.53;;;17.90;65.50;;;;;;5053461;28;20024;-64
2021/06/02 02:10:06;;;;;;;7.55;5.05;;;17.90;66.00;;;;;;5054428;28;20472;-64
2021/06/02 02:12:46;;;;;;;7.68;5.15;;;17.90;66.40;;;;;;5055585;28;20028;-64
2021/06/02 02:15:32;;;;;;;10.35;5.35;;;17.90;66.90;;;;;;5063002;28;20041;-64
2021/06/02 02:18:28;;;;;;;9.15;5.20;;;17.90;67.20;;;;;;5065077;28;20033;-64
2021/06/02 02:21:09;;;;;;;9.20;5.43;;;17.90;67.40;;;;;;5068912;28;20036;-64
2021/06/02 02:24:02;;;;;;;10.10;5.50;;;17.80;67.90;;;;;;5057396;28;20028;-64
2021/06/02 02:26:57;;;;;;;8.47;5.60;;;17.80;68.00;;;;;;5066392;28;20051;-64
2021/06/02 02:29:53;;;;;;;12.02;5.90;;;17.80;68.30;;;;;;5059625;28;20486;-64
2021/06/02 02:33:01;;;;;;;11.90;5.65;;;17.80;68.70;;;;;;5063105;28;20467;-64
2021/06/02 02:35:46;;;;;;;8.35;6.30;;;17.80;68.90;;;;;;5069293;28;20028;-64
2021/06/02 02:38:35;;;;;;;9.68;5.75;;;17.80;69.30;;;;;;5064103;28;20372;-64
2021/06/02 02:41:36;;;;;;;14.70;6.47;;;17.80;69.50;;;;;;5069762;28;20029;-64
2021/06/02 02:44:05;;;;;;;11.50;6.30;;;17.70;69.70;;;;;;5068471;28;20078;-64
2021/06/02 02:46:45;;;;;;;13.30;6.05;;;17.70;70.00;;;;;;5072144;28;20021;-64
2021/06/02 02:49:40;;;;;;;16.38;7.65;;;17.70;70.20;;;;;;5072660;28;20040;-64
2021/06/02 02:52:10;;;;;;;10.63;6.68;;;17.70;70.30;;;;;;5073270;28;20028;-64
2021/06/02 02:54:42;;;;;;;13.82;7.10;;;17.70;70.50;;;;;;5072003;28;20098;-64
2021/06/02 02:57:44;;;;;;;13.20;6.95;;;17.70;70.50;;;;;;5063357;28;20033;-64
2021/06/02 03:00:17;;;;;;;10.15;6.68;;;17.70;70.70;;;;;;5051447;28;20468;-61
2021/06/02 03:03:13;;;;;;;11.93;7.10;;;17.70;70.80;;;;;;5059651;28;20060;-64
2021/06/02 03:06:21;;;;;;;13.02;7.93;;;17.70;70.90;;;;;;5068707;28;20460;-64
2021/06/02 03:09:24;;;;;;;13.85;7.75;;;17.70;70.90;;;;;;5029748;28;20129;-64
2021/06/02 03:12:23;;;;;;;14.65;7.85;;;17.60;71.10;;;;;;5043916;28;20039;-64
2021/06/02 03:15:27;;;;;;;13.70;7.90;;;17.60;71.30;;;;;;5054326;28;20057;-64
2021/06/02 03:17:58;;;;;;;14.25;7.28;;;17.60;71.40;;;;;;5063737;28;20039;-64
2021/06/02 03:20:27;;;;;;;12.65;6.93;;;17.60;71.50;;;;;;5071266;28;20056;-64
2021/06/02 03:23:30;;;;;;;12.18;7.57;;;17.50;71.60;;;;;;5072330;28;20067;-64
2021/06/02 03:26:11;;;;;;;13.35;7.85;;;17.50;71.60;;;;;;5070856;28;20103;-64
2021/06/02 03:28:59;;;;;;;14.27;8.05;;;17.50;71.60;;;;;;5072358;28;20059;-64
2021/06/02 03:31:41;;;;;;;13.30;7.53;;;17.50;71.70;;;;;;5062317;28;20111;-64
2021/06/02 03:34:46;;;;;;;12.35;7.10;;;17.50;71.60;;;;;;5058734;28;20032;-64
2021/06/02 03:37:14;;;;;;;11.15;7.25;;;17.50;71.60;;;;;;5071825;28;20044;-64
2021/06/02 03:40:01;;;;;;;12.50;7.13;;;17.50;71.50;;;;;;5059486;28;20484;-64
2021/06/02 03:42:46;;;;;;;13.45;7.95;;;17.50;71.40;;;;;;5071373;28;20460;-64
2021/06/02 03:45:50;;;;;;;11.82;7.00;;;17.40;71.40;;;;;;5059519;28;20033;-64
2021/06/02 03:48:35;;;;;;;13.30;6.65;;;17.40;71.40;;;;;;5053900;28;20056;-64
2021/06/02 03:51:01;;;;;;;14.52;7.05;;;17.40;71.20;;;;;;5056856;28;20024;-64
2021/06/02 03:53:51;;;;;;;12.55;7.30;;;17.50;71.20;;;;;;5064314;28;20028;-64
2021/06/02 03:56:36;;;;;;;10.32;6.88;;;17.40;71.10;;;;;;5057242;28;20032;-64
2021/06/02 03:59:31;;;;;;;11.57;7.63;;;17.40;70.90;;;;;;5054661;28;20031;-64
2021/06/02 04:02:05;;;;;;;11.15;6.97;;;17.40;70.90;;;;;;5055372;28;20032;-64
2021/06/02 04:04:36;;;;;;;12.00;6.80;;;17.40;70.90;;;;;;5058027;28;20033;-64
2021/06/02 04:07:03;;;;;;;8.63;5.90;;;17.40;70.90;;;;;;5071655;28;20032;-64
2021/06/02 04:09:39;;;;;;;12.75;6.70;;;17.40;70.90;;;;;;5072169;28;20064;-64
2021/06/02 04:12:18;;;;;;;14.38;6.28;;;17.40;70.80;;;;;;5059226;28;20082;-64
2021/06/02 04:14:57;;;;;;;14.68;5.97;;;17.40;70.70;;;;;;5058960;28;20045;-64
2021/06/02 04:17:24;;;;;;;9.50;6.32;;;17.40;70.50;;;;;;5054314;28;20361;-64
2021/06/02 04:19:54;;;;;;;9.60;5.95;;;17.30;70.30;;;;;;5068682;28;20071;-64
2021/06/02 04:22:22;;;;;;;11.25;6.63;;;17.40;70.30;;;;;;5070830;28;20021;-64
2021/06/02 04:24:49;;;;;;;11.63;6.20;;;17.30;70.10;;;;;;5072313;28;20029;-64
2021/06/02 04:27:17;;;;;;;10.82;6.32;;;17.30;70.10;;;;;;5066764;28;20519;-64
2021/06/02 04:29:50;;;;;;;9.55;6.03;;;17.30;70.10;;;;;;5051812;28;20051;-64
2021/06/02 04:32:16;;;;;;;15.52;6.70;;;17.30;70.10;;;;;;5057849;28;20031;-64
2021/06/02 04:34:44;;;;;;;11.05;6.72;;;17.30;70.10;;;;;;5060516;28;20048;-64
2021/06/02 04:37:11;;;;;;;12.55;6.38;;;17.30;70.20;;;;;;5069075;28;20528;-64
2021/06/02 04:39:42;;;;;;;10.27;5.95;;;17.30;70.30;;;;;;5065466;28;20071;-63
2021/06/02 04:42:10;;;;;;;10.98;6.30;;;17.30;70.30;;;;;;5055005;28;20036;-64
2021/06/02 04:44:37;;;;;;;12.77;6.63;;;17.30;70.50;;;;;;5067150;28;20039;-64
2021/06/02 04:47:04;;;;;;;12.00;6.57;;;17.30;70.60;;;;;;5063669;28;20025;-64
2021/06/02 04:49:36;;;;;;;14.27;8.45;;;17.30;70.70;;;;;;5067127;28;20028;-64
2021/06/02 04:52:33;;;;;;;19.20;7.10;;;17.30;71.10;;;;;;5059578;28;20025;-64
2021/06/02 04:55:25;;;;;;;15.82;7.60;;;17.20;71.20;;;;;;5060353;28;20502;-64
2021/06/02 04:58:08;;;;;;;13.88;7.55;;;17.20;71.30;;;;;;5057406;28;20029;-64
2021/06/02 05:01:05;;;;;;;11.65;7.57;;;17.20;71.80;;;;;;5057269;28;20021;-65
2021/06/02 05:03:42;;;;;;;10.50;6.78;;;17.20;71.80;;;;;;5053617;28;20472;-64
2021/06/02 05:06:27;;;;;;;6.40;3.75;;;17.10;72.00;;;;;;5066376;28;20512;-65
2021/06/02 05:09:16;;;;;;;10.45;5.40;;;17.10;72.20;;;;;;5062075;28;20031;-68
2021/06/02 05:12:19;;;;;;;13.40;6.97;;;17.00;72.20;;;;;;5070906;28;20104;-68
2021/06/02 05:15:09;;;;;;;12.55;3.60;;;17.00;72.00;;;;;;5074588;28;20056;-69
2021/06/02 05:17:54;;;;;;;9.75;5.63;;;17.00;72.20;;;;;;5059119;28;20024;-66
2021/06/02 05:23:31;;;;;;;12.45;6.55;;;17.00;72.30;;;;;;5073769;28;20119;-64
2021/06/02 05:26:26;;;;;;;13.10;5.97;;;17.00;72.40;;;;;;5067285;28;20021;-64
2021/06/02 05:28:54;;;;;;;11.48;5.55;;;17.00;72.60;;;;;;5066660;28;20071;-65
2021/06/02 05:31:42;;;;;;;11.32;5.90;;;17.00;72.60;;;;;;5059144;28;20059;-63
2021/06/02 05:34:52;;;;;;;11.65;5.97;;;17.00;72.70;;;;;;5056830;28;20039;-63
2021/06/02 05:37:54;;;;;;;14.15;5.75;;;17.00;72.70;;;;;;5062317;28;20041;-63
2021/06/02 05:40:44;;;;;;;11.27;6.40;;;17.00;72.70;;;;;;5057290;28;20025;-63
2021/06/02 05:43:46;;;;;;;13.38;6.38;;;17.00;73.00;;;;;;5063057;28;20035;-63
2021/06/02 05:46:49;;;;;;;15.32;5.82;;;17.00;73.20;;;;;;5060969;28;20031;-63
2021/06/02 05:50:05;;;;;;;11.88;5.75;;;17.00;73.00;;;;;;5058749;28;20025;-63
2021/06/02 05:52:34;;;;;;;13.45;6.63;;;17.10;72.90;;;;;;5035297;28;20047;-64
2021/06/02 05:55:38;;;;;;;9.73;4.65;;;17.10;73.10;;;;;;5065040;28;20154;-64
2021/06/02 05:58:35;;;;;;;12.52;6.15;;;17.10;73.20;;;;;;5056751;28;20039;-65
2021/06/02 06:01:31;;;;;;;13.48;6.22;;;17.20;73.00;;;;;;5053557;28;20404;-63
2021/06/02 06:04:26;;;;;;;12.15;6.07;;;17.20;72.70;;;;;;5057555;28;20055;-65
2021/06/02 06:07:30;;;;;;;12.82;5.80;;;17.20;72.80;;;;;;5055311;28;20036;-67
2021/06/02 06:10:05;;;;;;;12.07;5.68;;;17.30;72.70;;;;;;5030072;28;20053;-66
2021/06/02 06:12:30;;;;;;;13.38;7.00;;;17.30;72.40;;;;;;5060402;28;20025;-64
2021/06/02 06:15:35;;;;;;;9.23;5.32;;;17.40;72.10;;;;;;5055665;28;20060;-64
2021/06/02 06:18:06;;;;;;;11.23;6.90;;;17.40;71.90;;;;;;5058731;28;20043;-64
2021/06/02 06:20:57;;;;;;;15.10;6.40;;;17.50;72.10;;;;;;5057440;28;20054;-64
2021/06/02 06:23:52;;;;;;;12.32;6.50;;;17.50;72.00;;;;;;5058037;28;20052;-62
2021/06/02 06:26:56;;;;;;;12.40;8.10;;;17.60;71.40;;;;;;5052273;28;20037;-62
2021/06/02 06:29:32;;;;;;;11.80;6.40;;;17.70;71.20;;;;;;5056299;28;20025;-62
2021/06/02 06:31:59;;;;;;;16.52;6.63;;;17.70;70.90;;;;;;5054017;28;20144;-67
2021/06/02 06:34:30;;;;;;;15.63;6.65;;;17.80;70.90;;;;;;5054669;28;20033;-73
2021/06/02 06:36:58;;;;;;;11.32;5.00;;;17.80;70.90;;;;;;5058156;28;20048;-63
2021/06/02 06:39:49;;;;;;;11.65;6.57;;;17.90;70.70;;;;;;5058719;28;20114;-68
2021/06/02 06:42:20;;;;;;;11.82;5.85;;;17.90;70.60;;;;;;5063534;28;20040;-64
2021/06/02 06:44:46;;;;;;;22.25;6.30;;;17.90;70.80;;;;;;5070656;28;20388;-66
2021/06/02 06:47:15;;;;;;;11.93;6.28;;;18.10;71.00;;;;;;5058096;28;20036;-65
2021/06/02 06:49:46;;;;;;;12.32;6.75;;;18.00;70.90;;;;;;5052929;28;20067;-65
2021/06/02 06:52:14;;;;;;;14.02;6.07;;;18.10;70.90;;;;;;5052018;28;20090;-66
2021/06/02 06:54:41;;;;;;;11.57;5.35;;;18.20;70.80;;;;;;5063682;28;20480;-63
2021/06/02 06:57:08;;;;;;;17.60;7.80;;;18.20;70.60;;;;;;5065000;28;20480;-63
2021/06/02 06:59:33;;;;;;;10.35;5.25;;;18.20;70.40;;;;;;5067960;28;20032;-64
2021/06/02 07:01:59;;;;;;;12.13;5.28;;;18.20;70.30;;;;;;5052227;28;20041;-64
2021/06/02 07:04:27;;;;;;;10.80;6.05;;;18.30;70.20;;;;;;5052300;28;20090;-65
2021/06/02 07:06:54;;;;;;;11.10;6.05;;;18.30;70.20;;;;;;5061295;28;20067;-64
2021/06/02 07:09:21;;;;;;;12.52;6.15;;;18.40;70.30;;;;;;5059981;28;20025;-64
2021/06/02 07:11:48;;;;;;;12.07;6.18;;;18.40;70.00;;;;;;5055481;28;20033;-65
2021/06/02 07:14:24;;;;;;;8.55;5.30;;;18.50;70.00;;;;;;5063833;28;20105;-64
2021/06/02 07:16:50;;;;;;;11.95;6.60;;;18.50;70.00;;;;;;5055175;28;20041;-64
2021/06/02 07:19:20;;;;;;;12.50;5.28;;;18.60;70.00;;;;;;5063555;28;20085;-64
2021/06/02 07:21:47;;;;;;;15.10;6.32;;;18.60;69.80;;;;;;5060121;28;20033;-65
2021/06/02 07:24:17;;;;;;;9.25;5.57;;;18.60;69.90;;;;;;5069612;28;20104;-64
2021/06/02 07:26:43;;;;;;;11.02;5.80;;;18.70;70.20;;;;;;5059145;28;20032;-64
2021/06/02 07:29:09;;;;;;;9.68;4.30;;;18.70;70.00;;;;;;5058023;28;20028;-64
2021/06/02 07:31:34;;;;;;;9.52;4.55;;;18.80;69.80;;;;;;5071720;28;20427;-64
2021/06/02 07:34:00;;;;;;;9.27;4.70;;;18.80;69.40;;;;;;5057394;28;20032;-65
2021/06/02 07:36:26;;;;;;;8.68;3.72;;;18.80;69.10;;;;;;5054623;28;20515;-63
2021/06/02 07:38:51;;;;;;;11.90;4.80;;;18.80;69.10;;;;;;5055921;28;20057;-63
2021/06/02 07:41:17;;;;;;;8.23;4.70;;;18.80;69.30;;;;;;5055947;28;20492;-63
2021/06/02 07:43:43;;;;;;;8.55;4.53;;;18.80;69.30;;;;;;5055409;28;20548;-63
2021/06/02 07:46:08;;;;;;;12.07;5.20;;;18.80;69.40;;;;;;5066224;28;20039;-64
2021/06/02 07:48:34;;;;;;;13.90;6.18;;;18.90;69.70;;;;;;5054491;28;20025;-64
2021/06/02 07:51:00;;;;;;;9.98;4.90;;;18.90;69.30;;;;;;5065089;28;20032;-64
2021/06/02 07:53:26;;;;;;;11.30;4.78;;;18.90;69.70;;;;;;5053730;28;20028;-65
2021/06/02 07:55:53;;;;;;;10.05;5.03;;;18.90;69.90;;;;;;5065222;28;20036;-63
2021/06/02 07:58:18;;;;;;;7.57;4.50;;;18.90;70.10;;;;;;5055003;28;20504;-65
2021/06/02 08:00:44;;;;;;;9.95;5.65;;;18.90;70.40;;;;;;5056760;28;20060;-63
2021/06/02 08:03:10;;;;;;;11.20;5.25;;;19.00;70.40;;;;;;5067520;28;20025;-63
2021/06/02 08:05:35;;;;;;;10.88;4.75;;;19.00;70.50;;;;;;5063223;28;20100;-64
2021/06/02 08:08:01;;;;;;;9.15;4.68;;;19.10;70.70;;;;;;5068200;28;20099;-65
2021/06/02 08:10:27;;;;;;;9.20;4.88;;;19.10;70.40;;;;;;5061503;28;20442;-65
2021/06/02 08:12:52;;;;;;;12.52;5.00;;;19.10;70.40;;;;;;5055757;28;20053;-65
2021/06/02 08:15:19;;;;;;;7.22;4.47;;;19.10;70.30;;;;;;5068358;28;20052;-65
2021/06/02 08:17:45;;;;;;;7.47;3.83;;;19.20;70.50;;;;;;5067455;28;20035;-64
2021/06/02 08:20:12;;;;;;;9.63;4.10;;;19.10;70.70;;;;;;5064423;28;20036;-63
2021/06/02 08:22:39;;;;;;;8.68;4.05;;;19.20;70.40;;;;;;5070725;28;20117;-63
2021/06/02 08:25:07;;;;;;;7.03;3.80;;;19.20;70.30;;;;;;5071466;28;20033;-63
2021/06/02 08:27:33;;;;;;;8.68;4.65;;;19.20;70.70;;;;;;5059369;28;20024;-66
2021/06/02 08:29:59;;;;;;;10.25;4.45;;;19.30;70.50;;;;;;5071375;28;20039;-64
2021/06/02 08:32:25;;;;;;;9.20;4.32;;;19.40;70.70;;;;;;5052899;28;20056;-63
2021/06/02 08:34:52;;;;;;;9.07;4.10;;;19.40;70.90;;;;;;5070239;28;20049;-63
2021/06/02 08:37:20;;;;;;;7.43;4.03;;;19.50;70.80;;;;;;5070094;28;20119;-63
2021/06/02 08:39:46;;;;;;;5.82;3.42;;;19.60;70.90;;;;;;5065791;28;20029;-63
2021/06/02 08:42:13;;;;;;;5.07;3.40;;;19.60;70.80;;;;;;5064045;28;20059;-63
2021/06/02 08:44:39;;;;;;;9.13;3.80;;;19.70;71.00;;;;;;5056788;28;20112;-62
2021/06/02 08:47:07;;;;;;;7.75;2.88;;;19.70;70.90;;;;;;5054365;28;20121;-63
2021/06/02 08:49:33;;;;;;;16.92;4.32;;;19.80;70.90;;;;;;5069125;28;20503;-63
2021/06/02 08:52:04;;;;;;;5.25;2.70;;;19.80;70.80;;;;;;5074236;28;20016;-62
2021/06/02 08:54:30;;;;;;;7.85;3.45;;;19.90;70.80;;;;;;5058963;28;20040;-62
2021/06/02 08:56:56;;;;;;;6.35;3.42;;;19.90;70.60;;;;;;5068936;28;20496;-62
2021/06/02 08:59:22;;;;;;;5.85;2.55;;;20.00;70.50;;;;;;5069194;28;20025;-63
2021/06/02 09:01:49;;;;;;;6.68;3.15;;;20.00;70.50;;;;;;5060779;28;20430;-63
2021/06/02 09:04:15;;;;;;;3.45;2.08;;;20.10;70.00;;;;;;5073594;28;20491;-63
2021/06/02 09:06:47;;;;;;;5.93;3.47;;;20.10;70.50;;;;;;5071111;28;20039;-63
2021/06/02 09:09:15;;;;;;;7.35;3.13;;;20.10;69.60;;;;;;5063393;28;20036;-63
2021/06/02 09:11:44;;;;;;;7.72;3.22;;;20.20;70.00;;;;;;5069091;28;20480;-63
2021/06/02 09:14:24;;;;;;;10.80;3.50;;;20.20;69.40;;;;;;5072772;28;20076;-62
2021/06/02 09:16:53;;;;;;;4.53;2.67;;;20.30;69.40;;;;;;5064497;28;20037;-63
2021/06/02 09:19:41;;;;;;;3.80;2.25;;;20.40;69.30;;;;;;5070847;28;20025;-63
2021/06/02 09:22:15;;;;;;;6.03;2.08;;;20.40;68.90;;;;;;5061050;28;20024;-63
2021/06/02 09:24:51;;;;;;;6.35;2.70;;;20.40;69.20;;;;;;5060948;28;20099;-63
2021/06/02 09:27:18;;;;;;;6.57;2.63;;;20.40;68.50;;;;;;5072828;28;20020;-63
2021/06/02 09:29:55;;;;;;;5.78;3.05;;;20.40;68.30;;;;;;5073602;28;20033;-63
2021/06/02 09:32:24;;;;;;;5.28;2.90;;;20.50;67.90;;;;;;5064037;28;20473;-63
2021/06/02 09:34:59;;;;;;;5.28;3.13;;;20.50;67.70;;;;;;5055742;28;20476;-64
2021/06/02 09:37:25;;;;;;;8.27;2.35;;;20.60;67.80;;;;;;5061356;28;20025;-63
2021/06/02 09:39:50;;;;;;;5.90;2.80;;;20.70;68.10;;;;;;5055200;28;20036;-63
2021/06/02 09:42:29;;;;;;;5.57;2.80;;;20.70;67.70;;;;;;5059953;28;20029;-63
2021/06/02 09:45:09;;;;;;;8.40;2.53;;;20.70;67.70;;;;;;5064622;28;20150;-63
2021/06/02 09:47:42;;;;;;;5.10;2.90;;;20.80;67.60;;;;;;5054249;28;20025;-63
2021/06/02 09:50:09;;;;;;;5.05;2.78;;;20.80;67.90;;;;;;5058562;28;20116;-63
2021/06/02 09:52:46;;;;;;;4.35;2.80;;;20.80;68.00;;;;;;5052867;28;20044;-63
2021/06/02 09:55:33;;;;;;;3.55;2.22;;;20.80;67.80;;;;;;5059278;28;20447;-63
2021/06/02 09:58:01;;;;;;;7.53;2.78;;;20.80;67.50;;;;;;5053999;28;20044;-63
2021/06/02 10:00:31;;;;;;;8.30;2.25;;;20.90;66.80;;;;;;5065092;28;20029;-63
2021/06/02 10:03:05;;;;;;;5.63;2.70;;;20.90;66.70;;;;;;5056093;28;20037;-63
2021/06/02 10:05:35;;;;;;;5.75;2.28;;;21.00;66.60;;;;;;5053595;28;20028;-63
2021/06/02 10:08:01;;;;;;;16.85;2.47;;;21.10;66.70;;;;;;5064108;28;20029;-63
2021/06/02 10:10:27;;;;;;;11.80;3.50;;;21.10;66.70;;;;;;5058711;28;20388;-63
2021/06/02 10:13:04;;;;;;;7.63;2.75;;;21.10;66.10;;;;;;5062922;28;20116;-63
2021/06/02 10:15:39;;;;;;;4.50;2.50;;;21.20;64.90;;;;;;5071638;28;20250;-63
2021/06/02 10:18:23;;;;;;;3.55;2.60;;;21.20;63.30;;;;;;5071891;28;20036;-63
2021/06/02 10:21:08;;;;;;;6.57;3.00;;;21.20;62.80;;;;;;5067873;28;20029;-63
2021/06/02 10:23:43;;;;;;;6.38;2.88;;;21.30;62.30;;;;;;5073665;28;20032;-63
2021/06/02 10:26:13;;;;;;;7.35;3.20;;;21.40;62.10;;;;;;5073138;28;20036;-63
2021/06/02 10:28:41;;;;;;;6.57;3.33;;;21.40;61.20;;;;;;5072689;28;20086;-63
2021/06/02 10:31:08;;;;;;;4.22;2.75;;;21.60;61.60;;;;;;5073578;28;20464;-62
2021/06/02 10:33:35;;;;;;;5.43;2.67;;;21.60;63.00;;;;;;5060681;28;20037;-65
2021/06/02 10:36:03;;;;;;;8.45;2.35;;;21.60;63.60;;;;;;5071483;28;20060;-63
2021/06/02 10:38:41;;;;;;;7.68;3.30;;;21.60;65.00;;;;;;5073416;28;20060;-63
2021/06/02 10:41:18;;;;;;;8.45;2.88;;;21.70;64.10;;;;;;5054049;28;20054;-63
2021/06/02 10:43:47;;;;;;;5.82;3.17;;;21.70;65.40;;;;;;5056026;28;20021;-62
2021/06/02 10:46:16;;;;;;;5.70;2.53;;;21.70;64.40;;;;;;5062461;28;20025;-64
2021/06/02 10:48:51;;;;;;;3.80;2.38;;;21.70;64.40;;;;;;5059522;28;20037;-63
2021/06/02 10:51:41;;;;;;;5.32;2.67;;;21.70;63.70;;;;;;5057101;28;20154;-62
2021/06/02 10:54:12;;;;;;;3.85;2.33;;;21.70;64.20;;;;;;5053208;28;20187;-62
2021/06/02 10:56:58;;;;;;;4.32;2.45;;;21.80;63.40;;;;;;5062176;28;20047;-62
2021/06/02 10:59:40;;;;;;;5.10;2.72;;;21.80;62.90;;;;;;5061837;28;20066;-62
2021/06/02 11:02:13;;;;;;;7.50;2.60;;;21.80;61.80;;;;;;5063612;28;20146;-62
2021/06/02 11:04:55;;;;;;;6.50;2.33;;;21.80;60.50;;;;;;5071103;28;20384;-62
2021/06/02 11:07:31;;;;;;;4.38;2.55;;;21.90;60.40;;;;;;5057215;28;20086;-62
2021/06/02 11:10:06;;;;;;;6.10;2.92;;;21.90;59.50;;;;;;5068698;28;20033;-62
2021/06/02 11:12:50;;;;;;;6.93;2.70;;;22.00;59.10;;;;;;5065465;28;20024;-62
2021/06/02 11:15:23;;;;;;;5.78;2.58;;;22.00;58.70;;;;;;5066947;28;20402;-62
2021/06/02 11:18:08;;;;;;;5.18;2.45;;;22.10;58.30;;;;;;5067030;28;20029;-62
2021/06/02 11:20:47;;;;;;;3.42;2.10;;;22.20;59.60;;;;;;5054631;28;20077;-64
2021/06/02 11:23:18;;;;;;;6.78;2.65;;;22.20;59.70;;;;;;5059390;28;20029;-63
2021/06/02 11:25:45;;;;;;;12.15;3.00;;;22.30;59.70;;;;;;5055156;28;20070;-63
2021/06/02 11:28:41;;;;;;;3.70;2.15;;;22.30;60.90;;;;;;5053955;28;20044;-63
2021/06/02 11:31:23;;;;;;;5.15;2.42;;;22.40;60.90;;;;;;5059998;28;20033;-63
2021/06/02 11:33:50;;;;;;;3.03;2.27;;;22.50;60.80;;;;;;5056681;28;20033;-63
2021/06/02 11:36:16;;;;;;;4.78;2.63;;;22.50;60.90;;;;;;5052543;28;20179;-63
2021/06/02 11:38:42;;;;;;;4.55;2.33;;;22.50;60.90;;;;;;5056392;28;20111;-63
2021/06/02 11:41:10;;;;;;;5.05;2.20;;;22.60;61.50;;;;;;5054352;28;20486;-65
2021/06/02 11:43:37;;;;;;;4.95;2.35;;;22.70;61.00;;;;;;5061080;28;20032;-63
2021/06/02 11:46:03;;;;;;;6.97;2.25;;;22.70;60.30;;;;;;5056975;28;20036;-63
2021/06/02 11:48:30;;;;;;;5.30;2.35;;;22.70;59.90;;;;;;5056881;28;20120;-63
2021/06/02 11:50:59;;;;;;;6.03;2.35;;;22.80;60.50;;;;;;5052978;28;20057;-63
2021/06/02 11:53:45;;;;;;;3.33;2.10;;;22.80;60.30;;;;;;5058606;28;20063;-63
2021/06/02 11:56:11;;;;;;;4.85;2.15;;;22.90;60.30;;;;;;5055700;28;20072;-74
2021/06/02 11:58:37;;;;;;;7.05;3.03;;;22.90;61.00;;;;;;5053953;28;20104;-69
2021/06/02 12:01:03;;;;;;;7.93;2.92;;;22.80;60.70;;;;;;5053949;28;20041;-64
2021/06/02 12:03:29;;;;;;;5.97;2.65;;;22.90;60.00;;;;;;5056811;28;20035;-64
2021/06/02 12:05:55;;;;;;;9.35;2.83;;;22.90;60.20;;;;;;5071236;28;20562;-64
2021/06/02 12:08:22;;;;;;;11.32;2.72;;;22.90;60.10;;;;;;5069068;28;20037;-65
2021/06/02 12:10:52;;;;;;;4.90;2.75;;;22.90;60.00;;;;;;5055163;28;20029;-63
2021/06/02 12:13:19;;;;;;;4.30;2.47;;;23.00;60.00;;;;;;5053479;28;20546;-63
2021/06/02 12:16:12;;;;;;;3.67;2.28;;;23.00;59.90;;;;;;5059126;28;20068;-63
2021/06/02 12:18:43;;;;;;;3.63;2.40;;;23.00;60.80;;;;;;5059389;28;20029;-67
2021/06/02 12:21:30;;;;;;;5.18;2.63;;;23.00;61.10;;;;;;5065032;28;20051;-63
2021/06/02 12:24:04;;;;;;;7.25;2.47;;;23.10;61.00;;;;;;5071631;28;20178;-63
2021/06/02 12:26:35;;;;;;;5.65;3.42;;;23.10;60.90;;;;;;5060777;28;20035;-63
2021/06/02 12:29:04;;;;;;;5.97;2.40;;;23.10;60.20;;;;;;5066712;28;20464;-63
2021/06/02 12:31:33;;;;;;;6.97;3.13;;;23.10;60.40;;;;;;5072794;28;20149;-63
2021/06/02 12:34:05;;;;;;;8.07;2.67;;;23.20;60.60;;;;;;5071380;28;20035;-63
2021/06/02 12:36:32;;;;;;;6.93;3.20;;;23.20;60.20;;;;;;5074258;28;20036;-63
2021/06/02 12:39:01;;;;;;;5.45;3.05;;;23.30;60.90;;;;;;5071002;28;20025;-63
2021/06/02 12:41:27;;;;;;;6.30;3.08;;;23.30;60.20;;;;;;5060729;28;20050;-63
2021/06/02 12:43:53;;;;;;;9.70;3.28;;;23.30;60.30;;;;;;5062469;28;20127;-63
2021/06/02 12:46:19;;;;;;;6.57;3.00;;;23.40;59.90;;;;;;5071033;28;20074;-65
2021/06/02 12:48:45;;;;;;;15.25;3.53;;;23.40;59.90;;;;;;5062267;28;20036;-63
2021/06/02 12:51:17;;;;;;;5.90;3.25;;;23.50;60.00;;;;;;5071880;28;20529;-62
2021/06/02 12:53:46;;;;;;;12.05;3.17;;;23.50;60.10;;;;;;5060988;28;20164;-63
2021/06/02 12:56:13;;;;;;;5.55;2.92;;;23.70;59.70;;;;;;5068800;28;20119;-63
2021/06/02 12:58:40;;;;;;;6.05;3.25;;;23.70;58.90;;;;;;5060446;28;20468;-63
2021/06/02 13:01:14;;;;;;;8.38;2.90;;;23.80;59.30;;;;;;5072649;28;20072;-63
2021/06/02 13:03:53;;;;;;;6.53;2.90;;;23.80;58.90;;;;;;5063583;28;20087;-63
2021/06/02 13:06:20;;;;;;;5.35;2.72;;;23.90;58.70;;;;;;5071495;28;20128;-63
2021/06/02 13:08:47;;;;;;;9.05;2.85;;;23.90;58.30;;;;;;5056622;28;20025;-63
2021/06/02 13:11:17;;;;;;;9.88;2.42;;;24.00;59.10;;;;;;5074674;28;20036;-66
2021/06/02 13:13:50;;;;;;;15.23;2.85;;;24.10;59.40;;;;;;5060181;28;20048;-65
2021/06/02 13:16:17;;;;;;;3.72;2.42;;;24.10;59.50;;;;;;5060453;28;20044;-65
2021/06/02 13:19:03;;;;;;;11.05;2.97;;;24.10;59.70;;;;;;5065954;28;20025;-66
2021/06/02 13:21:33;;;;;;;7.03;2.78;;;24.10;58.80;;;;;;5070942;28;20037;-65
2021/06/02 13:24:09;;;;;;;8.30;2.40;;;24.20;58.40;;;;;;5063053;28;20033;-65
2021/06/02 13:26:35;;;;;;;6.13;2.75;;;24.20;59.30;;;;;;5065679;28;20020;-66
2021/06/02 13:29:03;;;;;;;5.88;2.55;;;24.10;60.30;;;;;;5056047;28;20021;-67